createdAt,value
2019-02-16T00:02:54.557Z,9.50
2019-02-16T00:06:00.333Z,9.00
2019-02-16T00:09:06.938Z,10.27
2019-02-16T00:12:13.629Z,10.13
2019-02-16T00:15:19.472Z,8.87
2019-02-16T00:18:25.267Z,10.03
2019-02-16T00:21:31.019Z,7.93
2019-02-16T00:24:36.884Z,7.57
2019-02-16T00:27:42.750Z,7.80
2019-02-16T00:30:48.532Z,8.53
2019-02-16T00:33:54.433Z,9.00
2019-02-16T00:37:00.197Z,9.23
2019-02-16T00:40:06.227Z,8.80
2019-02-16T00:43:12.003Z,10.13
2019-02-16T00:46:17.790Z,10.03
2019-02-16T00:49:23.615Z,9.60
2019-02-16T00:52:29.402Z,9.23
2019-02-16T00:55:35.214Z,9.03
2019-02-16T00:58:40.986Z,8.90
2019-02-16T01:01:46.980Z,9.73
2019-02-16T01:04:52.778Z,8.77
2019-02-16T01:07:58.525Z,10.03
2019-02-16T01:11:04.395Z,10.97
2019-02-16T01:14:10.164Z,11.70
2019-02-16T01:17:16.009Z,13.57
2019-02-16T01:20:21.881Z,13.77
2019-02-16T01:23:27.669Z,14.37
2019-02-16T01:26:33.442Z,14.00
2019-02-16T01:29:39.240Z,15.37
2019-02-16T01:32:44.998Z,16.47
2019-02-16T01:35:50.753Z,16.63
2019-02-16T01:38:56.505Z,17.47
2019-02-16T01:42:02.286Z,17.47
2019-02-16T01:45:09.661Z,17.90
2019-02-16T01:48:15.474Z,17.13
2019-02-16T01:51:21.269Z,17.03
2019-02-16T01:54:27.070Z,18.23
2019-02-16T01:57:32.812Z,18.83
2019-02-16T02:00:38.597Z,19.20
2019-02-16T02:03:44.370Z,18.33
2019-02-16T02:06:50.208Z,18.07
2019-02-16T02:09:55.977Z,19.63
2019-02-16T02:13:01.802Z,17.60
2019-02-16T02:16:07.592Z,17.90
2019-02-16T02:19:13.406Z,17.57
2019-02-16T02:22:19.171Z,15.17
2019-02-16T02:25:25.613Z,15.13
2019-02-16T02:28:31.370Z,14.87
2019-02-16T02:31:37.682Z,14.60
2019-02-16T02:34:43.474Z,14.90
2019-02-16T02:37:49.257Z,14.00
2019-02-16T02:40:55.040Z,13.27
2019-02-16T02:44:00.814Z,12.30
2019-02-16T02:47:06.671Z,12.67
2019-02-16T02:50:12.426Z,10.80
2019-02-16T02:53:18.219Z,10.57
2019-02-16T02:56:23.972Z,10.60
2019-02-16T02:59:29.768Z,10.47
2019-02-16T03:02:35.637Z,9.20
2019-02-16T03:05:41.459Z,8.60
2019-02-16T03:08:47.337Z,8.87
2019-02-16T03:11:53.163Z,8.33
2019-02-16T03:14:58.925Z,7.33
2019-02-16T03:18:04.795Z,8.50
2019-02-16T03:21:10.584Z,6.93
2019-02-16T03:24:16.369Z,7.20
2019-02-16T03:28:12.173Z,6.60
2019-02-16T03:32:00.754Z,6.23
2019-02-16T03:35:39.341Z,6.03
2019-02-16T03:39:17.732Z,6.27
2019-02-16T03:42:23.501Z,6.30
2019-02-16T03:45:29.288Z,6.63
2019-02-16T03:48:35.089Z,6.57
2019-02-16T03:51:40.895Z,8.63
2019-02-16T03:54:46.676Z,7.43
2019-02-16T03:57:52.437Z,8.20
2019-02-16T04:00:58.196Z,7.60
2019-02-16T04:04:04.039Z,6.40
2019-02-16T04:07:09.829Z,6.77
2019-02-16T04:10:15.579Z,6.70
2019-02-16T04:13:21.351Z,6.07
2019-02-16T04:16:27.130Z,6.83
2019-02-16T04:19:32.897Z,7.17
2019-02-16T04:22:38.727Z,7.27
2019-02-16T04:25:44.476Z,6.77
2019-02-16T04:28:50.364Z,6.90
2019-02-16T04:31:56.131Z,7.30
2019-02-16T04:35:01.911Z,8.03
2019-02-16T04:38:07.668Z,7.70
2019-02-16T04:41:13.542Z,7.63
2019-02-16T04:44:20.442Z,8.70
2019-02-16T04:47:26.203Z,9.10
2019-02-16T04:50:32.005Z,10.97
2019-02-16T04:53:37.853Z,9.93
2019-02-16T04:56:43.740Z,9.40
2019-02-16T04:59:49.550Z,9.07
2019-02-16T05:02:55.312Z,9.63
2019-02-16T05:06:01.111Z,9.70
2019-02-16T05:09:07.844Z,9.60
2019-02-16T05:12:13.633Z,9.40
2019-02-16T05:15:19.492Z,9.30
2019-02-16T05:18:25.255Z,9.03
2019-02-16T05:21:31.048Z,8.67
2019-02-16T05:24:36.888Z,9.50
2019-02-16T05:27:42.645Z,8.70
2019-02-16T05:30:48.392Z,7.67
2019-02-16T05:33:54.163Z,7.97
2019-02-16T05:36:59.934Z,9.10
2019-02-16T05:40:06.621Z,8.13
2019-02-16T05:43:12.389Z,8.70
2019-02-16T05:46:18.204Z,8.10
2019-02-16T05:49:23.997Z,9.00
2019-02-16T05:52:29.757Z,12.03
2019-02-16T05:55:35.589Z,12.40
2019-02-16T05:58:41.327Z,11.93
2019-02-16T06:01:53.530Z,10.03
2019-02-16T06:04:54.602Z,9.90
2019-02-16T06:08:00.464Z,11.73
2019-02-16T06:11:06.361Z,10.53
2019-02-16T06:14:12.132Z,9.30
2019-02-16T06:17:17.909Z,8.73
2019-02-16T06:20:23.749Z,7.87
2019-02-16T06:23:29.548Z,7.77
2019-02-16T06:26:35.366Z,5.83
2019-02-16T06:29:41.164Z,6.37
2019-02-16T06:32:46.953Z,6.20
2019-02-16T06:36:06.638Z,6.50
2019-02-16T06:39:12.439Z,6.50
2019-02-16T06:42:18.237Z,6.70
2019-02-16T06:45:24.006Z,5.80
2019-02-16T06:48:29.787Z,6.73
2019-02-16T06:51:35.566Z,8.37
2019-02-16T06:54:41.429Z,6.47
2019-02-16T06:57:49.840Z,6.87
2019-02-16T07:00:55.607Z,7.17
2019-02-16T07:04:01.384Z,6.20
2019-02-16T07:07:07.735Z,6.37
2019-02-16T07:10:13.552Z,7.20
2019-02-16T07:13:19.329Z,7.97
2019-02-16T07:16:49.771Z,7.00
2019-02-16T07:19:57.772Z,8.70
2019-02-16T07:23:03.557Z,6.80
2019-02-16T07:26:09.313Z,7.17
2019-02-16T07:29:15.151Z,7.07
2019-02-16T07:32:20.975Z,5.87
2019-02-16T07:35:26.735Z,6.00
2019-02-16T07:38:32.541Z,6.80
2019-02-16T07:41:38.351Z,6.70
2019-02-16T07:45:08.812Z,6.40
2019-02-16T07:48:27.772Z,6.40
2019-02-16T07:51:44.708Z,6.20
2019-02-16T07:55:09.324Z,6.87
2019-02-16T07:58:34.022Z,6.23
2019-02-16T08:02:05.560Z,6.67
2019-02-16T08:05:36.197Z,6.27
2019-02-16T08:08:56.034Z,7.23
2019-02-16T08:12:23.948Z,7.33
2019-02-16T08:15:47.170Z,7.83
2019-02-16T08:18:59.429Z,9.27
2019-02-16T08:22:24.076Z,9.17
2019-02-16T08:25:51.535Z,10.27
2019-02-16T08:29:11.285Z,7.97
2019-02-16T08:32:23.560Z,8.10
2019-02-16T08:35:56.994Z,9.60
2019-02-16T08:39:08.822Z,9.33
2019-02-16T08:42:36.506Z,8.47
2019-02-16T08:45:51.731Z,8.00
2019-02-16T08:49:31.812Z,30.43
2019-02-16T08:52:55.209Z,61.33
2019-02-16T08:56:38.246Z,18.43
2019-02-16T09:00:06.202Z,15.77
2019-02-16T09:03:29.341Z,13.03
2019-02-16T09:06:52.642Z,10.23
2019-02-16T09:10:15.940Z,12.73
2019-02-16T09:13:46.723Z,13.17
2019-02-16T09:17:14.400Z,8.20
2019-02-16T09:20:38.971Z,9.83
2019-02-16T09:24:12.606Z,8.87
2019-02-16T09:27:43.058Z,9.20
2019-02-16T09:31:07.662Z,7.93
2019-02-16T09:34:31.276Z,7.00
2019-02-16T09:38:05.264Z,8.57
2019-02-16T09:41:23.583Z,7.90
2019-02-16T09:44:54.067Z,6.77
2019-02-16T09:48:24.844Z,7.43
2019-02-16T09:51:48.119Z,7.33
2019-02-16T09:55:18.613Z,8.20
2019-02-16T09:58:34.543Z,8.60
2019-02-16T10:02:08.252Z,7.67
2019-02-16T10:05:31.662Z,6.97
2019-02-16T10:08:50.513Z,9.23
2019-02-16T10:12:08.474Z,9.97
2019-02-16T10:15:33.190Z,8.33
2019-02-16T10:18:46.512Z,9.23
2019-02-16T10:22:04.620Z,7.07
2019-02-16T10:25:39.360Z,7.37
2019-02-16T10:29:06.803Z,8.37
2019-02-16T10:32:37.196Z,6.37
2019-02-16T10:36:08.067Z,7.17
2019-02-16T10:39:41.772Z,5.83
2019-02-16T10:43:20.293Z,6.43
2019-02-16T10:46:50.798Z,5.03
2019-02-16T10:50:18.492Z,22.30
2019-02-16T10:54:01.286Z,6.63
2019-02-16T10:57:29.047Z,5.90
2019-02-16T11:01:00.305Z,5.07
2019-02-16T11:04:38.187Z,5.87
2019-02-16T11:07:56.177Z,7.07
2019-02-16T11:11:11.758Z,5.70
2019-02-16T11:14:30.734Z,5.43
2019-02-16T11:17:55.847Z,6.60
2019-02-16T11:21:32.981Z,6.37
2019-02-16T11:25:09.690Z,7.67
2019-02-16T11:28:46.602Z,6.70
2019-02-16T11:32:09.885Z,6.50
2019-02-16T11:35:43.483Z,6.10
2019-02-16T11:39:11.046Z,5.80
2019-02-16T11:42:23.356Z,6.60
2019-02-16T11:46:03.152Z,6.37
2019-02-16T11:49:25.161Z,6.30
2019-02-16T11:52:56.160Z,7.30
2019-02-16T11:56:11.874Z,5.90
2019-02-16T11:59:36.527Z,6.50
2019-02-16T12:03:19.162Z,7.03
2019-02-16T12:06:33.751Z,27.97
2019-02-16T12:10:01.488Z,6.17
2019-02-16T12:13:32.192Z,6.77
2019-02-16T12:16:55.474Z,6.77
2019-02-16T12:20:18.724Z,7.63
2019-02-16T12:23:33.559Z,6.53
2019-02-16T12:26:58.332Z,7.13
2019-02-16T12:30:26.263Z,6.90
2019-02-16T12:33:52.717Z,7.50
2019-02-16T12:37:16.185Z,8.23
2019-02-16T12:40:43.739Z,6.80
2019-02-16T12:44:02.401Z,8.13
2019-02-16T12:47:33.073Z,7.60
2019-02-16T12:50:59.505Z,7.13
2019-02-16T12:54:22.563Z,6.87
2019-02-16T12:57:50.114Z,6.63
2019-02-16T13:01:20.523Z,7.27
2019-02-16T13:04:45.120Z,10.73
2019-02-16T13:07:58.477Z,8.73
2019-02-16T13:11:26.279Z,7.20
2019-02-16T13:15:00.322Z,8.20
2019-02-16T13:18:30.904Z,6.53
2019-02-16T13:21:40.847Z,9.17
2019-02-16T13:24:53.886Z,8.07
2019-02-16T13:28:24.353Z,7.13
2019-02-16T13:31:40.446Z,7.30
2019-02-16T13:35:10.863Z,6.23
2019-02-16T13:38:30.317Z,6.80
2019-02-16T13:41:46.443Z,7.07
2019-02-16T13:45:07.545Z,10.17
2019-02-16T13:48:22.100Z,7.40
2019-02-16T13:51:37.005Z,6.80
2019-02-16T13:54:56.862Z,15.30
2019-02-16T13:58:20.129Z,5.30
2019-02-16T14:01:51.051Z,5.57
2019-02-16T14:05:12.176Z,5.73
2019-02-16T14:08:36.976Z,5.40
2019-02-16T14:12:07.448Z,5.70
2019-02-16T14:15:29.591Z,5.80
2019-02-16T14:18:35.454Z,6.07
2019-02-16T14:21:41.224Z,7.03
2019-02-16T14:24:50.283Z,6.37
2019-02-16T14:27:56.078Z,7.53
2019-02-16T14:31:01.870Z,7.20
2019-02-16T14:34:07.637Z,7.67
2019-02-16T14:37:41.704Z,6.67
2019-02-16T14:40:47.511Z,7.33
2019-02-16T14:43:53.345Z,8.17
2019-02-16T14:46:59.335Z,17.47
2019-02-16T14:50:05.527Z,31.17
2019-02-16T14:53:11.479Z,9.97
2019-02-16T14:56:17.262Z,10.23
2019-02-16T14:59:23.182Z,10.57
2019-02-16T15:02:28.981Z,12.03
2019-02-16T15:05:34.784Z,13.40
2019-02-16T15:08:41.658Z,14.40
2019-02-16T15:11:47.627Z,11.90
2019-02-16T15:14:53.583Z,10.37
2019-02-16T15:17:59.423Z,9.87
2019-02-16T15:21:05.241Z,10.97
2019-02-16T15:24:11.039Z,9.93
2019-02-16T15:27:16.867Z,9.90
2019-02-16T15:30:22.817Z,9.47
2019-02-16T15:33:28.617Z,10.23
2019-02-16T15:36:34.450Z,10.03
2019-02-16T15:39:40.254Z,10.77
2019-02-16T15:42:46.043Z,11.70
2019-02-16T15:45:51.842Z,10.50
2019-02-16T15:48:57.795Z,11.53
2019-02-16T15:52:03.531Z,13.20
2019-02-16T15:55:10.597Z,11.57
2019-02-16T15:58:16.385Z,13.23
2019-02-16T16:01:22.234Z,13.40
2019-02-16T16:04:28.094Z,14.37
2019-02-16T16:07:33.901Z,19.83
2019-02-16T16:10:45.380Z,19.07
2019-02-16T16:14:00.455Z,17.37
2019-02-16T16:17:24.231Z,18.40
2019-02-16T16:20:51.804Z,20.33
2019-02-16T16:24:22.522Z,20.30
2019-02-16T16:27:44.073Z,21.50
2019-02-16T16:31:01.737Z,21.10
2019-02-16T16:34:17.000Z,24.30
2019-02-16T16:37:44.439Z,20.70
2019-02-16T16:41:07.720Z,20.53
2019-02-16T16:44:29.857Z,20.87
2019-02-16T16:48:03.607Z,22.20
2019-02-16T16:51:17.548Z,21.60
2019-02-16T16:54:42.128Z,22.03
2019-02-16T16:58:05.798Z,24.10
2019-02-16T17:01:29.422Z,23.47
2019-02-16T17:04:54.149Z,27.33
2019-02-16T17:08:19.483Z,38.50
2019-02-16T17:11:44.140Z,47.80
2019-02-16T17:15:11.820Z,39.13
2019-02-16T17:18:30.415Z,34.83
2019-02-16T17:21:53.780Z,29.17
2019-02-16T17:25:24.185Z,31.17
2019-02-16T17:28:41.760Z,32.60
2019-02-16T17:32:07.086Z,34.50
2019-02-16T17:35:21.422Z,39.67
2019-02-16T17:38:33.231Z,36.07
2019-02-16T17:41:55.674Z,91.93
2019-02-16T17:45:20.290Z,116.33
2019-02-16T17:48:43.524Z,112.93
2019-02-16T17:52:10.912Z,97.67
2019-02-16T17:55:34.273Z,93.33
2019-02-16T17:58:59.014Z,70.87
2019-02-16T18:02:15.572Z,43.90
2019-02-16T18:05:39.104Z,50.10
2019-02-16T18:09:02.229Z,40.80
2019-02-16T18:12:37.825Z,36.77
2019-02-16T18:15:58.468Z,38.40
2019-02-16T18:19:09.570Z,36.33
2019-02-16T18:22:22.363Z,39.80
2019-02-16T18:25:44.361Z,37.60
2019-02-16T18:29:14.909Z,39.53
2019-02-16T18:32:38.934Z,39.30
2019-02-16T18:36:00.791Z,51.23
2019-02-16T18:39:30.227Z,50.20
2019-02-16T18:42:53.857Z,46.23
2019-02-16T18:46:21.358Z,54.77
2019-02-16T18:49:44.946Z,53.07
2019-02-16T18:53:21.656Z,54.70
2019-02-16T18:56:55.361Z,47.23
2019-02-16T19:00:25.803Z,46.37
2019-02-16T19:03:50.448Z,38.63
2019-02-16T19:07:01.705Z,46.27
2019-02-16T19:10:38.696Z,38.23
2019-02-16T19:13:55.313Z,32.17
2019-02-16T19:17:29.522Z,28.00
2019-02-16T19:20:49.009Z,29.80
2019-02-16T19:24:01.152Z,30.63
2019-02-16T19:27:25.874Z,31.33
2019-02-16T19:30:45.720Z,32.73
2019-02-16T19:34:13.414Z,29.63
2019-02-16T19:37:34.101Z,30.90
2019-02-16T19:40:46.497Z,29.87
2019-02-16T19:44:14.976Z,30.50
2019-02-16T19:47:32.125Z,31.70
2019-02-16T19:51:06.037Z,34.63
2019-02-16T19:54:30.661Z,35.63
2019-02-16T19:57:53.767Z,34.13
2019-02-16T20:01:24.612Z,31.37
2019-02-16T20:04:50.160Z,39.10
2019-02-16T20:08:20.848Z,35.60
2019-02-16T20:11:48.716Z,34.40
2019-02-16T20:15:04.365Z,34.93
2019-02-16T20:18:18.090Z,33.90
2019-02-16T20:22:01.316Z,35.30
2019-02-16T20:25:30.063Z,62.27
2019-02-16T20:28:57.461Z,59.97
2019-02-16T20:32:18.793Z,66.20
2019-02-16T20:35:49.739Z,60.70
2019-02-16T20:39:20.248Z,51.43
2019-02-16T20:42:36.435Z,43.13
2019-02-16T20:45:55.363Z,37.37
2019-02-16T20:49:20.085Z,35.70
2019-02-16T20:52:48.024Z,33.87
2019-02-16T20:56:12.639Z,34.47
2019-02-16T20:59:38.117Z,35.63
2019-02-16T21:03:05.515Z,35.97
2019-02-16T21:06:30.171Z,36.53
2019-02-16T21:10:13.338Z,34.13
2019-02-16T21:13:41.028Z,34.30
2019-02-16T21:17:23.853Z,31.73
2019-02-16T21:20:47.308Z,34.40
2019-02-16T21:24:14.931Z,32.70
2019-02-16T21:27:57.721Z,29.40
2019-02-16T21:31:08.496Z,83.73
2019-02-16T21:34:31.730Z,43.27
2019-02-16T21:37:59.121Z,49.27
2019-02-16T21:41:29.860Z,38.33
2019-02-16T21:44:44.282Z,40.53
2019-02-16T21:48:18.338Z,36.70
2019-02-16T21:51:41.785Z,37.47
2019-02-16T21:54:59.589Z,36.27
2019-02-16T21:58:11.352Z,37.10
2019-02-16T22:01:30.413Z,40.17
2019-02-16T22:04:53.906Z,35.50
2019-02-16T22:08:24.337Z,36.03
2019-02-16T22:11:36.849Z,34.73
2019-02-16T22:14:42.659Z,37.47
2019-02-16T22:17:49.563Z,34.97
2019-02-16T22:20:55.358Z,59.17
2019-02-16T22:24:01.281Z,44.13
2019-02-16T22:27:07.082Z,37.10
2019-02-16T22:30:13.113Z,37.40
2019-02-16T22:33:18.901Z,36.17
2019-02-16T22:36:24.687Z,36.27
2019-02-16T22:39:30.467Z,77.13
2019-02-16T22:42:36.279Z,44.33
2019-02-16T22:45:42.090Z,37.10
2019-02-16T22:48:47.892Z,33.23
2019-02-16T22:51:53.803Z,99.23
2019-02-16T22:55:00.759Z,24.73
2019-02-16T22:58:06.582Z,21.00
2019-02-16T23:01:12.703Z,18.77
2019-02-16T23:04:18.825Z,20.80
2019-02-16T23:07:25.760Z,19.27
2019-02-16T23:10:31.949Z,18.97
2019-02-16T23:13:37.746Z,21.60
2019-02-16T23:16:43.770Z,32.80
2019-02-16T23:19:49.548Z,20.83
2019-02-16T23:22:55.435Z,21.33
2019-02-16T23:26:01.330Z,17.80
2019-02-16T23:29:07.268Z,21.57
2019-02-16T23:32:13.240Z,16.93
2019-02-16T23:35:19.018Z,26.67
2019-02-16T23:38:24.799Z,13.87
2019-02-16T23:41:30.569Z,14.27
2019-02-16T23:44:36.414Z,14.20
2019-02-16T23:47:42.206Z,13.80
2019-02-16T23:50:47.996Z,13.50
2019-02-16T23:53:53.761Z,14.40
2019-02-16T23:56:59.558Z,22.23
